Flight Track Log - Related Links

Times and Time Zones

All times are in EST time to prevent confusion due to time zone crossing. See the UCA3596 flight status page for this flight to view local times or setup timezone preferences in your user account.

Time Position Orientation Groundspeed Altitude Reporting Facility
EST Latitude Longitude Course Direction KTS MPH feet Rate Location/Type
Sun 01:20:00 PM 39.5489 -77.1982 19° North  Level Estimated
Sun 01:21:00 PM 39.6157 -77.1688 19° North  Level Estimated
Sun 01:22:00 PM 39.6824 -77.1394 19° North  Level Estimated
Sun 01:23:00 PM 39.7492 -77.1099 19° North  Level Estimated
Sun 01:24:00 PM 39.8160 -77.0804 19° North  Level Estimated
Sun 01:25:00 PM 39.8827 -77.0508 19° North  Level Estimated
Sun 01:26:00 PM 39.9495 -77.0211 19° North  Level Estimated
Sun 01:27:00 PM 40.0162 -76.9914 19° North  Level Estimated
Sun 01:28:00 PM 40.0830 -76.9616 19° North  Level Estimated
Sun 01:29:00 PM 40.1403 -76.9360 19° North  Level Estimated
Sun 01:30:00 PM 40.1977 -76.9103 19° North  Level Estimated
Sun 01:31:00 PM 40.2550 -76.8846 19° North  Level Estimated
Sun 01:32:00 PM 40.3124 -76.8588 19° North  Level Estimated
Sun 01:33:00 PM 40.3697 -76.8330 19° North  Level Estimated
Sun 01:34:00 PM 40.4270 -76.8072 19° North  Level Estimated
Sun 01:35:00 PM 40.4844 -76.7813 19° North  Level Estimated
Sun 01:36:00 PM 40.5417 -76.7553 19° North  Level Estimated
Sun 01:37:00 PM 40.5990 -76.7293 19° North  Level Estimated
Sun 01:38:00 PM 40.6563 -76.7033 19° North  Level Estimated
Sun 01:39:00 PM 40.7136 -76.6772 19° North  Level Estimated
Sun 01:40:00 PM 40.7709 -76.6511 19° North  Level Estimated
Sun 01:41:00 PM 40.8282 -76.6249 19° North  Level Estimated
Sun 01:42:00 PM 40.8855 -76.5987 19° North  Level Estimated
Sun 01:43:00 PM 40.9428 -76.5725 19° North  Level Estimated
Sun 01:44:00 PM 41.0001 -76.5462 19° North  Level Estimated
Sun 01:45:00 PM 41.0573 -76.5198 19° North  Level Estimated
Sun 01:46:00 PM 41.1146 -76.4934 19° North  Level Estimated
Sun 01:47:00 PM 41.1718 -76.4670 19° North  Level Estimated
Sun 01:48:00 PM 41.2291 -76.4405 19° North  Level Estimated
Sun 01:49:00 PM 41.2864 -76.4140 19° North  Level Estimated
Sun 01:50:00 PM 41.3436 -76.3874 19° North  Level Estimated
Sun 01:51:00 PM 41.4008 -76.3607 19° North  Level Estimated
Sun 01:52:00 PM 41.4580 -76.3341 19° North  Level Estimated
Sun 01:53:00 PM 41.5153 -76.3074 19° North  Level Estimated
Sun 01:54:00 PM 41.5725 -76.2806 19° North  Level Estimated
Sun 01:55:00 PM 41.6297 -76.2538 19° North  Level Estimated
Sun 01:56:00 PM 41.6869 -76.2269 19° North  Level Estimated
Sun 01:57:00 PM 41.7441 -76.2000 19° North  Level Estimated
Sun 01:58:00 PM 41.8013 -76.1730 19° North  Level Estimated
Sun 01:59:00 PM 41.8585 -76.1460 19° North  Level Estimated
Sun 02:00:00 PM 41.9156 -76.1190 19° North  Level Estimated
Sun 02:01:00 PM 41.9728 -76.0919 19° North  Level Estimated
Sun 02:02:00 PM 42.0300 -76.0647 19° North  Level Estimated
Sun 02:03:00 PM 42.0871 -76.0375 19° North  Level Estimated
Sun 02:04:00 PM 42.1443 -76.0103 19° North  Level Estimated
Sun 02:05:00 PM 42.2014 -75.9830 19° North  Level Estimated
Sun 02:06:00 PM 42.2084 -75.9796 20° North  Level Estimated
Sun 02:07:00 PM 42.2084 -75.9796 35° Northeast  Level Estimated
Sun 02:08:00 PM 42.2084 -75.9796 35° Northeast  Level Estimated
Sun 02:09:00 PM 42.2084 -75.9796 35° Northeast  Level Estimated
Sun 02:10:00 PM 42.2084 -75.9796 35° Northeast  Level Estimated
Sun 02:11:00 PM 42.2084 -75.9796 35° Northeast  Level Estimated
Sun 02:12:00 PM 42.2084 -75.9796 35° Northeast  Level Estimated
Sun 02:13:00 PM 42.2084 -75.9796 35° Northeast  Level Estimated
Sun 02:14:00 PM 42.2084 -75.9796 35° Northeast  Level Estimated
Sun 02:15:00 PM 42.2084 -75.9796 35° Northeast  Level Estimated
Sun 02:16:00 PM 42.2084 -75.9796 35° Northeast  Level Estimated
Sun 02:17:00 PM 42.2084 -75.9796 35° Northeast  Level Estimated
Sun 02:18:00 PM 42.2084 -75.9796 35° Northeast  Level Estimated
Sun 02:19:00 PM 42.2084 -75.9796 35° Northeast  Level Estimated
Sun 02:20:00 PM 42.2084 -75.9796 35° Northeast  Level Estimated
Sun 02:21:00 PM 42.2084 -75.9796 35° Northeast  Level Estimated
Sun 02:22:00 PM 42.2084 -75.9796 35° Northeast  Level Estimated
Sun 02:23:00 PM 42.2084 -75.9796 35° Northeast  Level Estimated
Sun 02:24:00 PM 42.2084 -75.9796 35° Northeast  Level Estimated

Login

Don't have an account? Register now (free) for customized features, flight alerts, and more!